Time;durP1;ratioP1;P1;durP2;ratioP2;P2;SDS_P1;SDS_P2;PMS_P1;PMS_P2;Temp;Humidity;BMP_temperature;BMP_pressure;BME280_temperature;BME280_humidity;BME280_pressure;Samples;Min_cycle;Max_cycle;Signal;HPM_P1;HPM_P2
2022/06/18 00:00:39;;;;;;;5.30;4.65;;;19.60;99.90;;;;;;5029479;28;20048;-29
2022/06/18 00:03:05;;;;;;;5.38;4.85;;;19.60;99.90;;;;;;5043912;28;20116;-29
2022/06/18 00:05:33;;;;;;;6.88;5.53;;;19.60;99.90;;;;;;5049770;28;20072;-29
2022/06/18 00:07:59;;;;;;;7.25;5.32;;;19.50;99.90;;;;;;5039980;28;20045;-29
2022/06/18 00:10:29;;;;;;;6.35;5.53;;;19.50;99.90;;;;;;5029598;28;20129;-29
2022/06/18 00:15:41;;;;;;;7.78;5.50;;;19.40;99.90;;;;;;5026480;28;20120;-29
2022/06/18 00:18:11;;;;;;;8.00;5.53;;;19.40;99.90;;;;;;5044892;28;20037;-29
2022/06/18 00:20:38;;;;;;;9.30;5.75;;;19.40;99.90;;;;;;5047786;28;20033;-29
2022/06/18 00:23:10;;;;;;;7.97;6.00;;;19.40;99.90;;;;;;5046399;28;20037;-29
2022/06/18 00:25:39;;;;;;;6.13;5.50;;;19.40;99.90;;;;;;5038708;28;20080;-29
2022/06/18 00:28:16;;;;;;;6.30;5.80;;;19.30;99.90;;;;;;5044191;28;20409;-29
2022/06/18 00:30:42;;;;;;;7.38;5.43;;;19.30;99.90;;;;;;5026155;28;20048;-29
2022/06/18 00:33:08;;;;;;;5.53;5.13;;;19.30;99.90;;;;;;5046809;28;20095;-29
2022/06/18 00:35:34;;;;;;;5.72;5.20;;;19.20;99.90;;;;;;5051916;28;20032;-26
2022/06/18 00:38:03;;;;;;;5.80;5.28;;;19.20;99.90;;;;;;5036348;28;20045;-26
2022/06/18 00:40:36;;;;;;;6.05;5.55;;;19.20;99.90;;;;;;5040078;28;20079;-26
2022/06/18 00:43:10;;;;;;;;;;;19.20;99.90;;;;;;5047558;28;20040;-26
2022/06/18 00:45:35;;;;;;;7.30;5.82;;;19.10;99.90;;;;;;5039138;28;19925;-26
2022/06/18 00:48:04;;;;;;;6.93;5.70;;;19.10;99.90;;;;;;5053352;28;20063;-26
2022/06/18 00:50:46;;;;;;;6.30;5.70;;;19.00;99.90;;;;;;5054560;28;20128;-26
2022/06/18 00:53:31;;;;;;;5.85;5.35;;;19.00;99.90;;;;;;5045795;28;20045;-26
2022/06/18 00:56:08;;;;;;;6.45;5.80;;;19.00;99.90;;;;;;5046748;28;20033;-26
2022/06/18 00:58:49;;;;;;;7.28;5.40;;;18.90;99.90;;;;;;5044344;28;20526;-26
2022/06/18 01:01:22;;;;;;;5.93;5.43;;;18.90;99.90;;;;;;5051839;28;20080;-26
2022/06/18 01:03:50;;;;;;;7.88;5.63;;;18.90;99.90;;;;;;5038672;28;20036;-26
2022/06/18 01:06:17;;;;;;;6.07;5.35;;;18.80;99.90;;;;;;5024254;28;20033;-26
2022/06/18 01:08:45;;;;;;;6.38;5.65;;;18.80;99.90;;;;;;5040405;28;20041;-26
2022/06/18 01:11:20;;;;;;;6.35;5.38;;;18.80;99.90;;;;;;5025259;28;20041;-26
2022/06/18 01:13:47;;;;;;;7.05;6.35;;;18.80;99.90;;;;;;5054255;28;20397;-26
2022/06/18 01:16:15;;;;;;;7.15;6.13;;;18.70;99.90;;;;;;5050096;28;20033;-26
2022/06/18 01:18:41;;;;;;;6.55;6.05;;;18.70;99.90;;;;;;5046007;28;20033;-26
2022/06/18 01:21:34;;;;;;;6.97;5.93;;;18.60;99.90;;;;;;5035935;28;20543;-26
2022/06/18 01:24:10;;;;;;;6.95;6.38;;;18.70;99.90;;;;;;5045131;28;20037;-26
2022/06/18 01:26:36;;;;;;;6.35;5.80;;;18.70;99.90;;;;;;5048271;28;20032;-28
2022/06/18 01:29:02;;;;;;;7.13;6.20;;;18.60;99.90;;;;;;5051458;28;20037;-28
2022/06/18 01:31:29;;;;;;;12.75;6.20;;;18.60;99.90;;;;;;5049954;28;20033;-28
2022/06/18 01:33:56;;;;;;;8.00;5.75;;;18.60;99.90;;;;;;5049505;28;20028;-28
2022/06/18 01:36:25;;;;;;;6.78;6.00;;;18.60;99.90;;;;;;5043112;28;20041;-28
2022/06/18 01:38:51;;;;;;;6.55;5.97;;;18.60;99.90;;;;;;5043727;28;20037;-28
2022/06/18 01:44:20;;;;;;;8.68;6.40;;;18.60;99.90;;;;;;5050928;28;20088;-28
2022/06/18 01:46:49;;;;;;;7.65;6.20;;;18.70;99.90;;;;;;5043604;28;20037;-29
2022/06/18 01:49:21;;;;;;;8.75;6.95;;;18.70;99.90;;;;;;5018156;28;20100;-28
2022/06/18 01:51:49;;;;;;;6.88;6.28;;;18.80;99.90;;;;;;5045894;28;20045;-28
2022/06/18 01:54:20;;;;;;;8.57;7.32;;;18.80;99.90;;;;;;5025068;28;20127;-28
2022/06/18 01:56:54;;;;;;;8.77;7.97;;;18.80;99.90;;;;;;5014072;28;20121;-28
2022/06/18 01:59:29;;;;;;;8.52;7.70;;;18.70;99.90;;;;;;5045998;28;20384;-28
2022/06/18 02:01:56;;;;;;;8.15;7.35;;;18.80;99.90;;;;;;5024431;28;20513;-28
2022/06/18 02:04:24;;;;;;;8.73;7.35;;;18.70;99.90;;;;;;5041098;28;20053;-28
2022/06/18 02:06:52;;;;;;;8.02;6.90;;;18.70;99.90;;;;;;5042807;28;20068;-28
2022/06/18 02:09:30;;;;;;;8.60;7.75;;;18.70;99.90;;;;;;5021883;28;20048;-28
2022/06/18 02:12:00;;;;;;;9.57;7.60;;;18.70;99.90;;;;;;5041439;28;20049;-28
2022/06/18 02:14:27;;;;;;;8.50;7.70;;;18.70;99.90;;;;;;5028470;28;20037;-28
2022/06/18 02:16:56;;;;;;;9.32;8.32;;;18.70;99.90;;;;;;5043231;28;20091;-28
2022/06/18 02:19:22;;;;;;;9.38;8.55;;;18.70;99.90;;;;;;5049255;28;20532;-28
2022/06/18 02:21:52;;;;;;;8.70;7.82;;;18.70;99.90;;;;;;5047709;28;20112;-28
2022/06/18 02:24:18;;;;;;;8.60;7.80;;;18.70;99.90;;;;;;5047049;28;20040;-28
2022/06/18 02:26:46;;;;;;;10.45;8.25;;;18.70;99.90;;;;;;5028119;28;20508;-28
2022/06/18 02:29:24;;;;;;;9.88;8.48;;;18.70;99.90;;;;;;5045946;28;20045;-28
2022/06/18 02:31:51;;;;;;;9.82;8.50;;;18.60;99.90;;;;;;5045207;28;20046;-28
2022/06/18 02:34:26;;;;;;;10.95;9.05;;;18.60;99.90;;;;;;5041070;28;20049;-28
2022/06/18 02:36:52;;;;;;;9.40;8.50;;;18.60;99.90;;;;;;5047589;28;20068;-28
2022/06/18 02:39:38;;;;;;;11.77;10.30;;;18.60;99.90;;;;;;5042729;28;20099;-28
2022/06/18 02:42:11;;;;;;;10.57;9.40;;;18.60;99.90;;;;;;5040669;28;20037;-28
2022/06/18 02:44:40;;;;;;;10.43;9.52;;;18.60;99.90;;;;;;5046727;28;20029;-28
2022/06/18 02:47:08;;;;;;;9.73;8.73;;;18.60;99.90;;;;;;5041683;28;20459;-29
2022/06/18 02:49:41;;;;;;;10.57;9.55;;;18.60;99.90;;;;;;5017608;28;20040;-28
2022/06/18 02:52:07;;;;;;;10.27;9.47;;;18.60;99.90;;;;;;5032741;28;20144;-28
2022/06/18 02:54:33;;;;;;;10.18;9.15;;;18.50;99.90;;;;;;5040050;28;20120;-28
2022/06/18 02:57:03;;;;;;;9.52;8.57;;;18.50;99.90;;;;;;5014950;28;20149;-28
2022/06/18 02:59:29;;;;;;;10.82;9.80;;;18.50;99.90;;;;;;5047447;28;20498;-28
2022/06/18 03:01:55;;;;;;;10.25;9.25;;;18.50;99.90;;;;;;5040017;28;20408;-28
2022/06/18 03:04:21;;;;;;;10.27;9.27;;;18.40;99.90;;;;;;5034024;28;20038;-28
2022/06/18 03:06:46;;;;;;;11.27;9.70;;;18.40;99.90;;;;;;5033773;28;20053;-28
2022/06/18 03:09:12;;;;;;;10.95;9.20;;;18.40;99.90;;;;;;5046158;28;20049;-28
2022/06/18 03:14:22;;;;;;;10.40;9.50;;;18.30;99.90;;;;;;5024313;28;20045;-28
2022/06/18 03:16:48;;;;;;;11.30;9.85;;;18.30;99.90;;;;;;5033857;28;20030;-28
2022/06/18 03:19:29;;;;;;;11.48;10.50;;;18.30;99.90;;;;;;5045309;28;20033;-28
2022/06/18 03:22:01;;;;;;;11.50;10.43;;;18.20;99.90;;;;;;5039125;28;20116;-28
2022/06/18 03:24:27;;;;;;;11.50;10.40;;;18.20;99.90;;;;;;5024295;28;20056;-28
2022/06/18 03:26:53;;;;;;;11.50;10.40;;;18.20;99.90;;;;;;5039381;28;20284;-29
2022/06/18 03:29:19;;;;;;;10.68;9.68;;;18.20;99.90;;;;;;5036633;28;20098;-28
2022/06/18 03:31:45;;;;;;;11.50;10.30;;;18.20;99.90;;;;;;5037215;28;20404;-28
2022/06/18 03:34:10;;;;;;;10.82;9.85;;;18.20;99.90;;;;;;5038255;28;20044;-28
2022/06/18 03:36:36;;;;;;;10.93;10.00;;;18.20;99.90;;;;;;5048629;28;20033;-28
2022/06/18 03:39:03;;;;;;;11.38;9.60;;;18.20;99.90;;;;;;5041512;28;20041;-28
2022/06/18 03:41:29;;;;;;;12.02;10.93;;;18.20;99.90;;;;;;5045459;28;20052;-28
2022/06/18 03:43:56;;;;;;;11.15;10.05;;;18.20;99.90;;;;;;5042150;28;20041;-28
2022/06/18 03:46:22;;;;;;;11.85;10.02;;;18.20;99.90;;;;;;5037037;28;20033;-28
2022/06/18 03:48:47;;;;;;;11.70;10.57;;;18.20;99.90;;;;;;5022153;28;20199;-28
2022/06/18 03:51:15;;;;;;;12.70;11.52;;;18.20;99.90;;;;;;5038565;28;20041;-28
2022/06/18 03:53:41;;;;;;;12.73;11.45;;;18.20;99.90;;;;;;5044339;28;20127;-28
2022/06/18 03:56:10;;;;;;;13.32;11.93;;;18.20;99.90;;;;;;5042569;28;20044;-28
2022/06/18 03:58:35;;;;;;;12.95;11.75;;;18.20;99.90;;;;;;5045785;28;20359;-28
2022/06/18 04:01:01;;;;;;;14.18;11.68;;;18.30;99.90;;;;;;5045320;28;20400;-28
2022/06/18 04:03:27;;;;;;;13.27;11.95;;;18.30;99.90;;;;;;5045914;28;20500;-28
2022/06/18 04:05:53;;;;;;;13.18;11.85;;;18.40;99.90;;;;;;5047087;28;20033;-28
2022/06/18 04:08:20;;;;;;;13.07;11.80;;;18.40;99.90;;;;;;5045235;28;20064;-28
2022/06/18 04:10:47;;;;;;;12.90;10.68;;;18.40;99.90;;;;;;5047473;28;20116;-28
2022/06/18 04:13:13;;;;;;;13.98;12.88;;;18.50;99.90;;;;;;5045734;28;20494;-28
2022/06/18 04:15:39;;;;;;;15.13;13.50;;;18.50;99.90;;;;;;5048307;28;20040;-28
2022/06/18 04:18:05;;;;;;;13.80;12.40;;;18.60;99.90;;;;;;5041466;28;20064;-28
2022/06/18 04:20:34;;;;;;;13.27;11.77;;;18.60;99.90;;;;;;5046441;28;20029;-29
2022/06/18 04:23:01;;;;;;;13.90;12.60;;;18.70;99.90;;;;;;5048320;28;20041;-29
2022/06/18 04:25:27;;;;;;;13.48;12.13;;;18.70;99.90;;;;;;5050188;28;20582;-28
2022/06/18 04:27:57;;;;;;;14.20;12.70;;;18.80;99.90;;;;;;5048797;28;20420;-29
2022/06/18 04:30:26;;;;;;;13.27;12.07;;;18.80;99.90;;;;;;5049185;28;20041;-29
2022/06/18 04:32:52;;;;;;;13.77;12.40;;;18.90;99.90;;;;;;5049404;28;20043;-29
2022/06/18 04:35:18;;;;;;;13.45;12.05;;;18.90;99.90;;;;;;5044380;28;20049;-28
2022/06/18 04:37:48;;;;;;;14.70;13.20;;;18.90;99.90;;;;;;5049282;28;20550;-28
2022/06/18 04:40:18;;;;;;;14.27;11.82;;;19.00;99.90;;;;;;5048941;28;20072;-29
2022/06/18 04:42:44;;;;;;;14.48;12.80;;;19.00;99.90;;;;;;5049150;28;20048;-29
2022/06/18 04:45:10;;;;;;;15.27;13.77;;;19.00;99.90;;;;;;5052184;28;20037;-28
2022/06/18 04:47:37;;;;;;;14.48;13.02;;;19.10;99.90;;;;;;5042440;28;20077;-29
2022/06/18 04:50:04;;;;;;;14.73;13.27;;;19.10;99.90;;;;;;5042795;28;20134;-29
2022/06/18 04:52:30;;;;;;;15.05;13.45;;;19.20;99.90;;;;;;5047045;28;20071;-29
2022/06/18 04:54:56;;;;;;;15.13;13.45;;;19.20;99.90;;;;;;5037132;28;20114;-29
2022/06/18 04:57:22;;;;;;;18.15;14.20;;;19.20;99.90;;;;;;5036278;28;20040;-29
2022/06/18 04:59:48;;;;;;;15.85;14.23;;;19.20;99.90;;;;;;5047963;28;20159;-29
2022/06/18 05:02:26;;;;;;;15.38;13.88;;;19.30;99.90;;;;;;5044801;28;20203;-28
2022/06/18 05:04:54;;;;;;;21.05;15.23;;;19.40;99.90;;;;;;5017933;28;20075;-29
2022/06/18 05:07:19;;;;;;;16.50;13.52;;;19.40;99.90;;;;;;5042080;28;20128;-29
2022/06/18 05:09:45;;;;;;;16.45;14.32;;;19.40;99.90;;;;;;5040790;28;20116;-29
2022/06/18 05:12:12;;;;;;;20.95;14.10;;;19.40;99.90;;;;;;5038543;28;20515;-28
2022/06/18 05:14:39;;;;;;;18.50;14.57;;;19.50;99.90;;;;;;5026670;28;20448;-28
2022/06/18 05:17:09;;;;;;;20.58;15.30;;;19.60;99.90;;;;;;5042483;28;20036;-28
2022/06/18 05:19:34;;;;;;;16.02;14.32;;;19.60;99.90;;;;;;5035263;28;20159;-28
2022/06/18 05:22:01;;;;;;;21.80;14.48;;;19.60;99.90;;;;;;5007656;28;20563;-28
2022/06/18 05:24:27;;;;;;;20.30;15.82;;;19.70;99.90;;;;;;5035973;28;20055;-28
2022/06/18 05:26:57;;;;;;;17.33;14.48;;;19.70;99.90;;;;;;5040334;28;20049;-28
2022/06/18 05:29:23;;;;;;;17.27;14.68;;;19.70;99.90;;;;;;5036419;28;20033;-28
2022/06/18 05:31:49;;;;;;;17.05;14.45;;;19.80;99.90;;;;;;5037164;28;20064;-28
2022/06/18 05:34:16;;;;;;;16.38;14.68;;;19.90;99.90;;;;;;5040651;28;20094;-29
2022/06/18 05:36:42;;;;;;;16.77;14.23;;;20.00;99.90;;;;;;5040792;28;20443;-28
2022/06/18 05:39:13;;;;;;;21.10;14.80;;;20.00;99.90;;;;;;5040152;28;20033;-28
2022/06/18 05:41:39;;;;;;;19.10;14.82;;;20.00;99.90;;;;;;5040389;28;20033;-29
2022/06/18 05:44:05;;;;;;;19.65;15.27;;;20.10;99.90;;;;;;5036222;28;20033;-29
2022/06/18 05:46:32;;;;;;;20.77;14.60;;;20.20;99.90;;;;;;5013621;28;20037;-29
2022/06/18 05:48:58;;;;;;;21.33;14.07;;;20.20;99.90;;;;;;5037597;28;20037;-28
2022/06/18 05:51:24;;;;;;;16.85;13.60;;;20.30;99.90;;;;;;5040164;28;20025;-28
2022/06/18 05:53:50;;;;;;;18.45;14.27;;;20.40;99.90;;;;;;5045815;28;20049;-28
2022/06/18 05:56:15;;;;;;;17.95;14.77;;;20.40;99.90;;;;;;5039669;28;20771;-28
2022/06/18 05:58:41;;;;;;;21.92;14.63;;;20.50;99.90;;;;;;5051033;28;20029;-28
2022/06/18 06:01:08;;;;;;;20.65;13.80;;;20.50;99.90;;;;;;5044854;28;20311;-28
2022/06/18 06:03:34;;;;;;;19.45;13.43;;;20.60;99.90;;;;;;5039297;28;20037;-28
2022/06/18 06:06:00;;;;;;;17.45;14.18;;;20.70;99.90;;;;;;5041446;28;20115;-28
2022/06/18 06:08:26;;;;;;;16.00;14.32;;;20.70;99.90;;;;;;5044718;28;20547;-28
2022/06/18 06:13:36;;;;;;;18.17;13.93;;;21.00;99.90;;;;;;5046307;28;20047;-28
2022/06/18 06:16:03;;;;;;;18.20;15.10;;;21.00;99.90;;;;;;5022217;28;20125;-28
2022/06/18 06:18:30;;;;;;;19.85;14.70;;;21.10;99.90;;;;;;5014114;28;20546;-28
2022/06/18 06:20:59;;;;;;;20.15;15.02;;;21.10;99.90;;;;;;5045576;28;20188;-29
2022/06/18 06:23:25;;;;;;;17.08;14.95;;;21.10;99.90;;;;;;5044389;28;20046;-29
2022/06/18 06:25:51;;;;;;;24.17;17.83;;;21.20;99.90;;;;;;5042615;28;20033;-29
2022/06/18 06:28:19;;;;;;;23.05;16.80;;;21.30;99.90;;;;;;5023787;28;20374;-29
2022/06/18 06:30:45;;;;;;;23.02;17.50;;;21.40;99.90;;;;;;5044955;28;20413;-30
2022/06/18 06:33:11;;;;;;;19.33;16.73;;;21.50;99.90;;;;;;5043515;28;20049;-29
2022/06/18 06:35:37;;;;;;;18.63;15.23;;;21.60;99.90;;;;;;5045027;28;20539;-29
2022/06/18 06:38:04;;;;;;;20.10;15.25;;;21.70;99.90;;;;;;5037131;28;20120;-29
2022/06/18 06:40:34;;;;;;;20.63;16.40;;;21.70;99.90;;;;;;5027866;28;20395;-29
2022/06/18 06:43:00;;;;;;;19.33;15.02;;;21.80;99.90;;;;;;5042468;28;20504;-29
2022/06/18 06:45:29;;;;;;;17.52;15.80;;;21.80;99.90;;;;;;5043397;28;20386;-29
2022/06/18 06:47:55;;;;;;;18.42;15.60;;;21.90;99.90;;;;;;5047462;28;20037;-30
2022/06/18 06:50:23;;;;;;;17.10;15.38;;;22.00;99.90;;;;;;5051455;28;20051;-30
2022/06/18 06:52:50;;;;;;;17.90;14.63;;;22.00;99.90;;;;;;5032871;28;20120;-30
2022/06/18 06:58:05;;;;;;;18.52;14.77;;;22.10;99.90;;;;;;5045708;28;20107;-29
2022/06/18 07:00:36;;;;;;;19.73;14.63;;;22.20;99.90;;;;;;5039918;28;20044;-28
2022/06/18 07:03:02;;;;;;;17.50;14.07;;;22.20;99.90;;;;;;5038865;28;20038;-30
2022/06/18 07:05:28;;;;;;;19.48;13.98;;;22.30;99.90;;;;;;5027452;28;20408;-30
2022/06/18 07:07:54;;;;;;;18.58;14.10;;;22.40;99.90;;;;;;5041377;28;20087;-29
2022/06/18 07:10:19;;;;;;;16.60;14.40;;;22.50;99.90;;;;;;5042762;28;20103;-30
2022/06/18 07:12:45;;;;;;;16.45;13.57;;;22.60;99.90;;;;;;5043794;28;20408;-29
2022/06/18 07:15:11;;;;;;;19.05;14.35;;;22.70;99.90;;;;;;5040652;28;20045;-29
2022/06/18 07:17:37;;;;;;;20.08;14.65;;;22.80;99.90;;;;;;5025216;28;20411;-29
2022/06/18 07:20:04;;;;;;;16.92;11.68;;;22.80;99.90;;;;;;5041142;28;20037;-29
2022/06/18 07:22:31;;;;;;;18.45;13.13;;;22.90;99.90;;;;;;5037766;28;20044;-29
2022/06/18 07:24:57;;;;;;;13.85;12.35;;;23.00;99.90;;;;;;5041094;28;20047;-29
2022/06/18 07:27:23;;;;;;;16.27;11.98;;;23.20;99.90;;;;;;5035730;28;20519;-29
2022/06/18 07:29:48;;;;;;;15.52;12.20;;;23.30;99.90;;;;;;5035818;28;20052;-29
2022/06/18 07:32:17;;;;;;;16.17;12.35;;;23.30;99.90;;;;;;5037694;28;20324;-29
2022/06/18 07:34:44;;;;;;;16.48;13.23;;;23.30;99.90;;;;;;5042870;28;20056;-29
2022/06/18 07:37:10;;;;;;;18.60;13.48;;;23.30;99.90;;;;;;5015199;28;20056;-29
2022/06/18 07:39:36;;;;;;;16.48;14.00;;;23.40;99.90;;;;;;5041775;28;20032;-29
2022/06/18 07:42:04;;;;;;;17.88;12.48;;;23.40;99.90;;;;;;5021954;28;20048;-29
2022/06/18 07:44:30;;;;;;;19.80;13.43;;;23.50;99.90;;;;;;5035264;28;20060;-29
2022/06/18 07:47:03;;;;;;;18.13;12.48;;;23.60;99.90;;;;;;5022531;28;20095;-30
2022/06/18 07:49:29;;;;;;;14.32;11.52;;;23.70;99.90;;;;;;5040441;28;20446;-29
2022/06/18 07:51:55;;;;;;;14.43;12.63;;;23.80;99.90;;;;;;5045832;28;20045;-29
2022/06/18 07:54:22;;;;;;;15.68;14.07;;;24.00;99.90;;;;;;5040377;28;20511;-29
2022/06/18 07:56:48;;;;;;;17.42;13.00;;;24.10;99.90;;;;;;5037333;28;20515;-30
2022/06/18 07:59:16;;;;;;;13.70;11.25;;;24.20;99.90;;;;;;5016187;28;20042;-29
2022/06/18 08:01:42;;;;;;;15.48;12.00;;;24.30;99.90;;;;;;5032624;28;20037;-30
2022/06/18 08:04:08;;;;;;;16.60;11.68;;;24.40;99.90;;;;;;5032394;28;20207;-30
2022/06/18 08:06:34;;;;;;;14.32;11.27;;;24.50;99.90;;;;;;5040539;28;20505;-30
2022/06/18 08:09:00;;;;;;;13.57;11.80;;;24.60;99.90;;;;;;5031541;28;20077;-30
2022/06/18 08:11:28;;;;;;;18.83;11.13;;;24.70;99.90;;;;;;5032191;28;20123;-30
2022/06/18 08:13:55;;;;;;;13.93;10.32;;;24.70;99.90;;;;;;5036066;28;20038;-30
2022/06/18 08:16:21;;;;;;;13.68;10.32;;;24.90;99.90;;;;;;5046359;28;20051;-30
2022/06/18 08:18:47;;;;;;;13.05;8.95;;;25.10;99.90;;;;;;5030573;28;20029;-30
2022/06/18 08:21:16;;;;;;;12.52;8.75;;;25.30;99.90;;;;;;5019351;28;20400;-30
2022/06/18 08:23:42;;;;;;;14.52;9.13;;;25.50;97.30;;;;;;5036562;28;20129;-30
2022/06/18 08:26:08;;;;;;;15.48;8.95;;;25.60;96.90;;;;;;5033505;28;20135;-30
2022/06/18 08:28:35;;;;;;;8.60;7.75;;;25.70;95.40;;;;;;5034793;28;20028;-30
2022/06/18 08:31:03;;;;;;;13.73;8.45;;;25.90;95.20;;;;;;5034431;28;20042;-30
2022/06/18 08:33:29;;;;;;;11.98;7.20;;;26.20;96.00;;;;;;5030025;28;20040;-30
2022/06/18 08:36:01;;;;;;;12.07;6.55;;;26.40;93.70;;;;;;5038769;28;20037;-30
2022/06/18 08:38:27;;;;;;;8.82;6.70;;;26.60;90.50;;;;;;5043103;28;20045;-30
2022/06/18 08:41:05;;;;;;;13.55;6.88;;;26.80;89.10;;;;;;5024935;28;20408;-30
2022/06/18 08:44:25;;;;;;;11.27;7.05;;;26.90;87.40;;;;;;5043233;28;20040;-30
2022/06/18 08:46:58;;;;;;;10.63;6.53;;;26.90;77.90;;;;;;4959179;28;20165;-30
2022/06/18 08:49:38;;;;;;;9.63;5.82;;;27.20;79.50;;;;;;5023020;28;20041;-30
2022/06/18 08:52:16;;;;;;;8.27;5.13;;;27.10;73.70;;;;;;5040377;28;20045;-30
2022/06/18 08:54:55;;;;;;;7.32;4.38;;;26.90;69.90;;;;;;5037300;28;20136;-30
2022/06/18 08:57:54;;;;;;;7.68;5.20;;;26.90;71.70;;;;;;5040730;28;20056;-30
2022/06/18 09:00:46;;;;;;;10.77;6.03;;;27.00;71.80;;;;;;5043462;28;20069;-30
2022/06/18 09:03:39;;;;;;;8.57;5.00;;;27.10;71.40;;;;;;5046172;28;20045;-30
2022/06/18 09:06:17;;;;;;;9.82;5.38;;;27.30;72.50;;;;;;5024557;28;20100;-30
2022/06/18 09:09:11;;;;;;;9.18;5.50;;;27.50;68.90;;;;;;5026599;28;20036;-30
2022/06/18 09:11:40;;;;;;;6.82;5.30;;;27.40;68.00;;;;;;5027510;28;20091;-30
2022/06/18 09:14:13;;;;;;;7.25;5.45;;;27.50;69.60;;;;;;5043263;28;20202;-30
2022/06/18 09:16:48;;;;;;;10.02;4.93;;;27.40;70.00;;;;;;5041290;28;20041;-30
2022/06/18 09:19:18;;;;;;;8.48;4.93;;;27.70;73.30;;;;;;5043256;28;20040;-30
2022/06/18 09:21:56;;;;;;;8.93;5.25;;;27.90;71.50;;;;;;5047789;28;20072;-28
2022/06/18 09:24:43;;;;;;;8.65;5.95;;;28.20;69.50;;;;;;5046226;28;20059;-29
2022/06/18 09:27:27;;;;;;;8.50;5.25;;;28.30;65.40;;;;;;5039907;28;20029;-29
2022/06/18 09:30:06;;;;;;;6.22;4.63;;;28.30;67.40;;;;;;5045486;28;20107;-30
2022/06/18 09:32:47;;;;;;;9.68;5.25;;;28.40;68.30;;;;;;5039859;28;20522;-30
2022/06/18 09:35:39;;;;;;;9.48;4.95;;;28.60;65.70;;;;;;5046444;28;20040;-30
2022/06/18 09:38:26;;;;;;;6.30;4.60;;;28.80;68.80;;;;;;5038016;28;20060;-30
2022/06/18 09:40:56;;;;;;;8.27;4.45;;;28.90;65.90;;;;;;5041904;28;20153;-30
2022/06/18 09:43:51;;;;;;;8.98;4.70;;;28.90;65.50;;;;;;5027706;28;20041;-28
2022/06/18 09:46:41;;;;;;;7.38;4.03;;;28.90;61.20;;;;;;5042160;28;20066;-30
2022/06/18 09:49:07;;;;;;;7.18;4.60;;;28.90;64.20;;;;;;5049675;28;20115;-30
2022/06/18 09:51:42;;;;;;;5.50;3.70;;;29.00;64.20;;;;;;5044470;28;20048;-29
2022/06/18 09:54:10;;;;;;;5.60;3.80;;;29.30;63.80;;;;;;5045870;28;20048;-30
2022/06/18 09:56:50;;;;;;;6.40;3.20;;;29.30;62.30;;;;;;5048961;28;20048;-29
2022/06/18 09:59:21;;;;;;;6.53;3.70;;;29.30;61.70;;;;;;5041092;28;20079;-30
2022/06/18 10:01:51;;;;;;;9.43;4.05;;;29.30;61.10;;;;;;5048128;28;20033;-29
2022/06/18 10:07:25;;;;;;;6.47;4.10;;;29.40;59.60;;;;;;4979743;28;20045;-30
2022/06/18 10:10:06;;;;;;;5.63;3.50;;;29.00;59.70;;;;;;5024372;28;20047;-30
2022/06/18 10:12:43;;;;;;;8.63;3.63;;;29.00;61.60;;;;;;5028190;28;20041;-29
2022/06/18 10:15:12;;;;;;;4.30;3.20;;;29.20;62.50;;;;;;5026624;28;20440;-29
2022/06/18 10:18:19;;;;;;;4.38;3.35;;;29.20;59.90;;;;;;5041671;28;20044;-30
2022/06/18 10:20:45;;;;;;;4.95;3.47;;;29.20;59.50;;;;;;4993668;28;20048;-30
2022/06/18 10:23:40;;;;;;;6.25;3.80;;;29.30;59.80;;;;;;5026472;28;20484;-30
2022/06/18 10:26:06;;;;;;;5.53;3.58;;;29.50;56.60;;;;;;5022763;28;20400;-30
2022/06/18 10:28:34;;;;;;;6.28;3.95;;;29.50;59.60;;;;;;5055421;28;20037;-30
2022/06/18 10:31:15;;;;;;;5.05;3.70;;;29.80;60.50;;;;;;5039390;28;20049;-30
2022/06/18 10:34:10;;;;;;;5.57;3.33;;;30.20;59.80;;;;;;5041353;28;20041;-30
2022/06/18 10:37:00;;;;;;;8.30;3.67;;;30.50;57.80;;;;;;5043432;28;20437;-30
2022/06/18 10:40:01;;;;;;;5.88;3.17;;;30.40;57.10;;;;;;5036419;28;20135;-30
2022/06/18 10:42:35;;;;;;;3.85;2.78;;;30.60;58.80;;;;;;5004336;28;20056;-30
2022/06/18 10:45:25;;;;;;;5.53;3.17;;;30.80;58.10;;;;;;5036487;28;20045;-30
2022/06/18 10:47:53;;;;;;;7.38;3.13;;;31.20;57.20;;;;;;5042076;28;20181;-30
2022/06/18 10:50:20;;;;;;;7.00;3.50;;;31.40;57.20;;;;;;5034873;28;20033;-30
2022/06/18 10:52:58;;;;;;;5.85;2.90;;;31.50;55.80;;;;;;5042313;28;20037;-30
2022/06/18 10:55:23;;;;;;;3.70;2.47;;;31.60;53.40;;;;;;5037633;28;20087;-30
2022/06/18 10:57:50;;;;;;;6.50;2.70;;;31.70;54.70;;;;;;5021366;28;20040;-30
2022/06/18 11:00:24;;;;;;;4.75;2.80;;;31.90;54.30;;;;;;5036581;28;20029;-30
2022/06/18 11:02:53;;;;;;;5.32;3.33;;;32.10;54.90;;;;;;5042988;28;20065;-30
2022/06/18 11:05:25;;;;;;;4.22;2.90;;;32.10;54.10;;;;;;5026607;28;20033;-30
2022/06/18 11:07:52;;;;;;;;;;;32.00;53.30;;;;;;5029502;28;20034;-30
2022/06/18 11:10:52;;;;;;;3.35;2.72;;;32.00;51.70;;;;;;5036610;28;19936;-30
2022/06/18 11:13:41;;;;;;;4.78;3.08;;;32.10;52.80;;;;;;5020622;28;20049;-30
2022/06/18 11:16:20;;;;;;;5.10;3.38;;;32.10;52.10;;;;;;5032512;28;20056;-30
2022/06/18 11:18:47;;;;;;;5.70;3.65;;;32.10;51.60;;;;;;5020403;28;20038;-30
2022/06/18 11:21:22;;;;;;;5.85;3.25;;;32.20;51.40;;;;;;5036085;28;20469;-30
2022/06/18 11:23:53;;;;;;;6.15;3.35;;;32.40;52.10;;;;;;5012123;28;20048;-30
2022/06/18 11:26:22;;;;;;;5.75;3.22;;;32.10;51.90;;;;;;5045539;28;20044;-30
2022/06/18 11:28:51;;;;;;;4.57;3.05;;;31.90;51.70;;;;;;5041335;28;20048;-30
2022/06/18 11:31:36;;;;;;;6.82;3.38;;;31.80;51.50;;;;;;5038337;28;20087;-29
2022/06/18 11:34:15;;;;;;;6.38;3.65;;;31.60;51.80;;;;;;5041392;28;20037;-30
2022/06/18 11:36:52;;;;;;;6.95;3.72;;;31.70;50.80;;;;;;5045817;28;20025;-30
2022/06/18 11:39:27;;;;;;;6.10;3.30;;;31.40;50.90;;;;;;5044547;28;20030;-29
2022/06/18 11:41:58;;;;;;;5.88;3.55;;;31.50;53.80;;;;;;5046437;28;20044;-29
2022/06/18 11:44:31;;;;;;;6.60;3.15;;;31.20;52.10;;;;;;5044682;28;20099;-29
2022/06/18 11:47:18;;;;;;;4.55;3.17;;;31.50;52.50;;;;;;5048797;28;20404;-30
2022/06/18 11:50:13;;;;;;;6.43;3.25;;;31.50;52.40;;;;;;5036562;28;20068;-30
2022/06/18 11:52:58;;;;;;;6.07;3.50;;;32.00;53.40;;;;;;5042859;28;20480;-29
2022/06/18 11:55:40;;;;;;;8.10;3.38;;;32.50;52.40;;;;;;5042451;28;20044;-29
2022/06/18 11:58:31;;;;;;;5.38;3.15;;;32.80;52.20;;;;;;5038922;28;20025;-30
2022/06/18 12:01:08;;;;;;;10.02;3.80;;;32.90;52.50;;;;;;5042093;28;20043;-30
2022/06/18 12:03:37;;;;;;;7.28;3.72;;;32.80;50.00;;;;;;5039402;28;20037;-30
2022/06/18 12:06:11;;;;;;;6.78;3.50;;;32.70;52.00;;;;;;5045035;28;20094;-30
2022/06/18 12:08:37;;;;;;;7.15;3.20;;;32.80;52.00;;;;;;5039100;28;20038;-30
2022/06/18 12:11:30;;;;;;;6.80;3.78;;;32.60;52.10;;;;;;5037777;28;20504;-30
2022/06/18 12:14:08;;;;;;;6.50;3.50;;;32.40;50.00;;;;;;5038588;28;20396;-30
2022/06/18 12:16:59;;;;;;;5.38;3.60;;;32.60;49.60;;;;;;5038689;28;20033;-30
2022/06/18 12:19:47;;;;;;;5.80;3.50;;;32.80;50.30;;;;;;5021958;28;20116;-30
2022/06/18 12:22:32;;;;;;;8.38;3.70;;;32.60;50.50;;;;;;5040815;28;20049;-30
2022/06/18 12:25:13;;;;;;;5.55;3.13;;;32.80;51.90;;;;;;5038597;28;20505;-30
2022/06/18 12:27:49;;;;;;;6.30;3.97;;;32.80;50.10;;;;;;5032449;28;20180;-30
2022/06/18 12:30:28;;;;;;;8.73;3.50;;;32.50;50.50;;;;;;5042152;28;20528;-30
2022/06/18 12:33:09;;;;;;;6.53;3.80;;;32.30;50.70;;;;;;5037949;28;20159;-29
2022/06/18 12:35:39;;;;;;;6.47;3.85;;;32.10;50.60;;;;;;5045791;28;20485;-29
2022/06/18 12:38:33;;;;;;;5.70;3.88;;;32.40;52.00;;;;;;5042126;28;20037;-31
2022/06/18 12:41:18;;;;;;;5.15;3.50;;;32.50;50.80;;;;;;5043610;28;20401;-31
2022/06/18 12:43:46;;;;;;;7.38;3.80;;;32.70;50.20;;;;;;5023078;28;20435;-30
2022/06/18 12:46:25;;;;;;;6.05;4.32;;;33.10;50.80;;;;;;5039729;28;20327;-31
2022/06/18 12:49:01;;;;;;;3.63;3.10;;;33.50;50.30;;;;;;5050480;28;20044;-31
2022/06/18 12:51:49;;;;;;;7.43;3.72;;;33.80;50.80;;;;;;5048599;28;20107;-30
2022/06/18 12:54:49;;;;;;;6.90;3.70;;;34.10;49.60;;;;;;5047330;28;20041;-31
2022/06/18 12:57:36;;;;;;;6.32;3.60;;;34.10;48.00;;;;;;5045123;28;20040;-31
2022/06/18 13:00:11;;;;;;;5.00;3.20;;;33.80;48.60;;;;;;5048381;28;20627;-31
2022/06/18 13:03:00;;;;;;;5.07;3.00;;;33.60;49.30;;;;;;5043062;28;20037;-30
2022/06/18 13:05:42;;;;;;;7.90;3.72;;;34.00;49.70;;;;;;5022806;28;20088;-30
2022/06/18 13:08:29;;;;;;;5.82;3.80;;;34.10;49.00;;;;;;5038901;28;20175;-30
2022/06/18 13:11:01;;;;;;;6.03;3.20;;;33.20;48.40;;;;;;5047052;28;20060;-31
2022/06/18 13:13:33;;;;;;;7.00;3.65;;;33.20;49.50;;;;;;5033593;28;20332;-30
2022/06/18 13:16:19;;;;;;;4.88;3.17;;;33.10;49.00;;;;;;5035486;28;20037;-31
2022/06/18 13:19:06;;;;;;;5.63;3.42;;;32.70;48.30;;;;;;5035901;28;20104;-31